createdAt,value
2022-08-03T00:00:26.219Z,94047.41
2022-08-03T00:02:53.098Z,94046.66
2022-08-03T00:05:19.888Z,94045.13
2022-08-03T00:07:46.590Z,94049.56
2022-08-03T00:10:15.375Z,94044.50
2022-08-03T00:12:42.109Z,94050.03
2022-08-03T00:15:11.198Z,94039.06
2022-08-03T00:17:53.712Z,94041.09
2022-08-03T00:20:21.621Z,94044.44
2022-08-03T00:22:48.941Z,94041.94
2022-08-03T00:25:16.229Z,94045.19
2022-08-03T00:27:42.997Z,94044.56
2022-08-03T00:30:10.470Z,94040.25
2022-08-03T00:32:37.138Z,94041.47
2022-08-03T00:35:09.805Z,94037.28
2022-08-03T00:37:41.514Z,94040.50
2022-08-03T00:40:13.532Z,94032.59
2022-08-03T00:42:53.601Z,94035.50
2022-08-03T00:45:41.342Z,94040.72
2022-08-03T00:48:29.562Z,94038.22
2022-08-03T00:50:56.424Z,94033.00
2022-08-03T00:53:23.088Z,94036.22
2022-08-03T00:55:49.882Z,94027.56
2022-08-03T00:58:16.737Z,94033.13
2022-08-03T01:00:43.484Z,94030.44
2022-08-03T01:03:11.867Z,94030.75
2022-08-03T01:05:52.102Z,94029.41
2022-08-03T01:08:44.086Z,94030.25
2022-08-03T01:11:19.182Z,94025.03
2022-08-03T01:14:18.406Z,94025.97
2022-08-03T01:17:02.025Z,94027.97
2022-08-03T01:19:49.648Z,94034.63
2022-08-03T01:22:50.468Z,94036.06
2022-08-03T01:25:38.587Z,94031.28
2022-08-03T01:28:14.057Z,94029.41
2022-08-03T01:30:45.877Z,94033.53
2022-08-03T01:33:33.660Z,94020.97
2022-08-03T01:36:04.744Z,94017.88
2022-08-03T01:38:31.376Z,94012.78
2022-08-03T01:41:03.718Z,94016.28
2022-08-03T01:44:28.057Z,94011.69
2022-08-03T01:46:20.592Z,94018.00
2022-08-03T01:48:49.002Z,94011.69
2022-08-03T01:51:18.387Z,94006.59
2022-08-03T01:53:46.977Z,94011.25
2022-08-03T01:56:16.280Z,94011.69
2022-08-03T01:58:45.078Z,94003.06
2022-08-03T02:01:13.692Z,94009.38
2022-08-03T02:04:00.495Z,94007.53
2022-08-03T02:06:59.988Z,94011.97
2022-08-03T02:09:19.953Z,94005.84
2022-08-03T02:11:47.589Z,94002.00
2022-08-03T02:14:15.893Z,94004.00
2022-08-03T02:16:44.615Z,93999.97
2022-08-03T02:19:11.932Z,94000.91
2022-08-03T02:21:56.982Z,93999.78
2022-08-03T02:24:26.068Z,94009.56
2022-08-03T02:26:55.995Z,94000.81
2022-08-03T02:29:39.277Z,94000.59
2022-08-03T02:32:10.630Z,94005.69
2022-08-03T02:34:38.225Z,94004.63
2022-08-03T02:37:07.004Z,93998.75
2022-08-03T02:39:36.338Z,94005.19
2022-08-03T02:42:03.688Z,94000.41
2022-08-03T02:44:33.570Z,94001.63
2022-08-03T02:47:09.736Z,93998.66
2022-08-03T02:49:50.536Z,93995.56
2022-08-03T02:52:19.699Z,93994.94
2022-08-03T02:54:49.367Z,93995.84
2022-08-03T02:57:19.271Z,93991.84
2022-08-03T02:59:46.760Z,93992.59
2022-08-03T03:02:15.973Z,93984.75
2022-08-03T03:05:52.793Z,93994.72
2022-08-03T03:07:34.655Z,93989.19
2022-08-03T03:10:20.629Z,93992.09
2022-08-03T03:12:50.212Z,93980.22
2022-08-03T03:15:17.042Z,93983.91
2022-08-03T03:17:44.285Z,93989.09
2022-08-03T03:20:12.050Z,93985.56
2022-08-03T03:22:40.249Z,93985.69
2022-08-03T03:25:12.075Z,93988.44
2022-08-03T03:27:39.935Z,93988.91
2022-08-03T03:30:07.397Z,93995.97
2022-08-03T03:32:36.780Z,93984.16
2022-08-03T03:35:05.207Z,93988.00
2022-08-03T03:37:31.967Z,93994.31
2022-08-03T03:39:58.729Z,93987.78
2022-08-03T03:42:25.960Z,93994.66
2022-08-03T03:44:52.678Z,93994.88
2022-08-03T03:47:32.616Z,93993.03
2022-08-03T03:50:00.124Z,93989.94
2022-08-03T03:52:26.913Z,93998.22
2022-08-03T03:54:56.402Z,93998.13
2022-08-03T03:57:27.580Z,94003.66
2022-08-03T03:59:54.334Z,94004.31
2022-08-03T04:02:21.156Z,94006.19
2022-08-03T04:05:06.322Z,94002.09
2022-08-03T04:08:07.403Z,94004.56
2022-08-03T04:10:55.518Z,94001.47
2022-08-03T04:13:23.093Z,94005.75
2022-08-03T04:15:50.952Z,93997.03
2022-08-03T04:18:19.781Z,94003.53
2022-08-03T04:20:49.989Z,93999.44
2022-08-03T04:23:21.126Z,94001.31
2022-08-03T04:25:50.879Z,94000.31
2022-08-03T04:28:30.636Z,93997.09
2022-08-03T04:30:59.700Z,93998.53
2022-08-03T04:33:29.281Z,93999.66
2022-08-03T04:36:02.549Z,94002.09
2022-08-03T04:38:33.016Z,93999.88
2022-08-03T04:41:01.067Z,94007.63
2022-08-03T04:43:28.715Z,94009.84
2022-08-03T04:45:56.888Z,94008.38
2022-08-03T04:48:24.488Z,94022.75
2022-08-03T04:50:51.908Z,94018.53
2022-08-03T04:53:19.519Z,94023.28
2022-08-03T04:55:46.879Z,94021.16
2022-08-03T04:58:13.721Z,94023.84
2022-08-03T05:00:40.381Z,94029.81
2022-08-03T05:03:24.058Z,94023.91
2022-08-03T05:06:01.810Z,94020.91
2022-08-03T05:08:41.181Z,94023.19
2022-08-03T05:11:15.637Z,94020.72
2022-08-03T05:13:42.539Z,94024.50
2022-08-03T05:16:09.232Z,94024.66
2022-08-03T05:18:36.049Z,94021.50
2022-08-03T05:21:02.926Z,94023.69
2022-08-03T05:23:29.603Z,94026.13
2022-08-03T05:25:56.474Z,94021.28
2022-08-03T05:28:23.497Z,94034.09
2022-08-03T05:30:50.321Z,94025.38
2022-08-03T05:33:16.997Z,94030.84
2022-08-03T05:35:55.769Z,94031.75
2022-08-03T05:38:34.257Z,94044.47
2022-08-03T05:41:22.580Z,94040.63
2022-08-03T05:43:52.554Z,94032.47
2022-08-03T05:46:19.437Z,94028.91
2022-08-03T05:48:46.239Z,94030.13
2022-08-03T05:51:13.478Z,94026.16
2022-08-03T05:53:42.197Z,94031.03
2022-08-03T05:56:14.172Z,94026.19
2022-08-03T05:58:43.841Z,94033.81
2022-08-03T06:01:10.561Z,94027.72
2022-08-03T06:03:37.264Z,94023.19
2022-08-03T06:06:04.093Z,94021.66
2022-08-03T06:08:30.811Z,94014.34
2022-08-03T06:10:57.537Z,94019.63
2022-08-03T06:13:24.158Z,94025.69
2022-08-03T06:15:50.876Z,94020.53
2022-08-03T06:18:17.821Z,94012.22
2022-08-03T06:20:44.440Z,94018.75
2022-08-03T06:23:17.615Z,94023.28
2022-08-03T06:25:45.323Z,94028.47
2022-08-03T06:31:01.090Z,94015.97
2022-08-03T06:34:30.968Z,94018.81
2022-08-03T06:36:15.322Z,94019.66
2022-08-03T06:38:42.082Z,94017.66
2022-08-03T06:41:08.828Z,94018.69
2022-08-03T06:44:02.582Z,94018.94
2022-08-03T06:46:25.065Z,94008.91
2022-08-03T06:48:53.097Z,94016.97
2022-08-03T06:51:19.878Z,94015.09
2022-08-03T06:53:46.578Z,94014.00
2022-08-03T06:56:13.242Z,94009.47
2022-08-03T06:58:39.963Z,94016.72
2022-08-03T07:01:06.751Z,94016.50
2022-08-03T07:03:33.464Z,94019.56
2022-08-03T07:06:00.151Z,94021.63
2022-08-03T07:08:33.913Z,94026.59
2022-08-03T07:11:01.695Z,94029.25
2022-08-03T07:13:28.422Z,94014.75
2022-08-03T07:15:56.438Z,94014.78
2022-08-03T07:18:28.863Z,94021.09
2022-08-03T07:20:59.615Z,94016.75
2022-08-03T07:23:26.320Z,94013.09
2022-08-03T07:25:53.013Z,94026.53
2022-08-03T07:28:20.481Z,94024.97
2022-08-03T07:30:47.446Z,94017.38
2022-08-03T07:33:15.094Z,94019.84
2022-08-03T07:35:42.286Z,94015.78
2022-08-03T07:38:09.004Z,94014.72
2022-08-03T07:40:35.861Z,94017.91
2022-08-03T07:43:03.699Z,94012.22
2022-08-03T07:45:31.139Z,94017.28
2022-08-03T07:47:57.879Z,94016.00
2022-08-03T07:50:24.590Z,94012.09
2022-08-03T07:52:52.996Z,94018.72
2022-08-03T07:55:21.483Z,94025.44
2022-08-03T07:57:59.133Z,94025.16
2022-08-03T08:00:26.262Z,94017.47
2022-08-03T08:02:52.877Z,94018.91
2022-08-03T08:05:19.692Z,94021.66
2022-08-03T08:07:51.005Z,94013.84
2022-08-03T08:10:18.857Z,94012.72
2022-08-03T08:12:45.805Z,94007.47
2022-08-03T08:15:12.539Z,94005.88
2022-08-03T08:18:08.383Z,94002.41
2022-08-03T08:20:38.113Z,93998.84
2022-08-03T08:23:31.279Z,94006.34
2022-08-03T08:25:54.689Z,94003.09
2022-08-03T08:28:32.558Z,94005.41
2022-08-03T08:31:00.560Z,94011.00
2022-08-03T08:33:37.297Z,94008.88
2022-08-03T08:36:15.506Z,94011.84
2022-08-03T08:38:44.967Z,94008.47
2022-08-03T08:41:13.533Z,94006.31
2022-08-03T08:43:41.040Z,94013.47
2022-08-03T08:46:11.821Z,94009.88
2022-08-03T08:48:43.947Z,94008.13
2022-08-03T08:51:12.366Z,94016.53
2022-08-03T08:53:43.077Z,94006.53
2022-08-03T08:56:15.442Z,94005.25
2022-08-03T08:58:47.521Z,94003.72
2022-08-03T09:01:14.280Z,93999.00
2022-08-03T09:03:41.312Z,93999.41
2022-08-03T09:06:07.981Z,94000.47
2022-08-03T09:08:34.815Z,94004.94
2022-08-03T09:11:01.520Z,93998.38
2022-08-03T09:13:29.239Z,93997.34
2022-08-03T09:16:16.734Z,94010.06
2022-08-03T09:18:46.762Z,93995.69
2022-08-03T09:21:30.685Z,93999.00
2022-08-03T09:24:02.862Z,94002.34
2022-08-03T09:26:33.622Z,93996.22
2022-08-03T09:29:08.128Z,93989.94
2022-08-03T09:31:37.784Z,94000.06
2022-08-03T09:34:08.912Z,94006.44
2022-08-03T09:36:46.411Z,93991.97
2022-08-03T09:39:16.025Z,93992.72
2022-08-03T09:42:04.752Z,93996.91
2022-08-03T09:44:46.845Z,93997.38
2022-08-03T09:47:28.385Z,93997.38
2022-08-03T09:50:03.865Z,93990.44
2022-08-03T09:52:38.867Z,93986.69
2022-08-03T09:55:23.828Z,93984.56
2022-08-03T09:58:11.310Z,93984.59
2022-08-03T10:01:00.584Z,93983.34
2022-08-03T10:03:29.782Z,93989.38
2022-08-03T10:05:59.839Z,93982.00
2022-08-03T10:08:27.202Z,93980.94
2022-08-03T10:10:58.696Z,93982.84
2022-08-03T10:13:25.539Z,93988.88
2022-08-03T10:16:23.182Z,93986.66
2022-08-03T10:18:38.996Z,93978.78
2022-08-03T10:21:10.413Z,93979.88
2022-08-03T10:23:40.902Z,93979.66
2022-08-03T10:26:09.406Z,93977.41
2022-08-03T10:28:44.973Z,93971.97
2022-08-03T10:31:14.045Z,93975.47
2022-08-03T10:33:49.538Z,93973.97
2022-08-03T10:36:22.115Z,93966.13
2022-08-03T10:38:52.960Z,93973.13
2022-08-03T10:41:22.012Z,93969.38
2022-08-03T10:44:03.882Z,93969.34
2022-08-03T10:46:32.669Z,93961.59
2022-08-03T10:49:00.188Z,93961.16
2022-08-03T10:51:31.876Z,93967.91
2022-08-03T10:53:59.807Z,93945.75
2022-08-03T10:56:53.556Z,93957.06
2022-08-03T10:59:47.039Z,93953.84
2022-08-03T11:02:14.861Z,93954.72
2022-08-03T11:04:42.712Z,93958.44
2022-08-03T11:07:18.770Z,93960.16
2022-08-03T11:09:51.032Z,93950.28
2022-08-03T11:12:33.013Z,93957.47
2022-08-03T11:15:06.658Z,93955.50
2022-08-03T11:17:34.002Z,93940.38
2022-08-03T11:20:13.813Z,93950.94
2022-08-03T11:22:51.459Z,93945.28
2022-08-03T11:25:54.345Z,93939.53
2022-08-03T11:28:31.102Z,93938.34
2022-08-03T11:31:53.690Z,93940.13
2022-08-03T11:34:20.452Z,93935.25
2022-08-03T11:37:23.289Z,93932.69
2022-08-03T11:39:53.015Z,93932.34
2022-08-03T11:42:22.809Z,93932.72
2022-08-03T11:45:00.625Z,93940.13
2022-08-03T11:47:29.556Z,93935.53
2022-08-03T11:50:02.015Z,93932.44
2022-08-03T11:52:36.301Z,93926.69
2022-08-03T11:55:08.326Z,93929.75
2022-08-03T11:59:01.342Z,93924.19
2022-08-03T12:00:25.913Z,93920.75
2022-08-03T12:03:13.799Z,93925.78
2022-08-03T12:05:51.393Z,93924.78
2022-08-03T12:08:28.264Z,93919.03
2022-08-03T12:10:57.004Z,93923.38
2022-08-03T12:14:43.923Z,93915.75
2022-08-03T12:16:19.591Z,93918.06
2022-08-03T12:18:55.339Z,93912.59
2022-08-03T12:21:24.627Z,93910.81
2022-08-03T12:23:56.149Z,93913.38
2022-08-03T12:26:22.907Z,93914.03
2022-08-03T12:28:50.212Z,93902.09
2022-08-03T12:31:17.171Z,93907.94
2022-08-03T12:34:05.128Z,93908.25
2022-08-03T12:36:34.717Z,93913.41
2022-08-03T12:39:07.528Z,93903.56
2022-08-03T12:41:39.831Z,93903.47
2022-08-03T12:44:08.043Z,93901.81
2022-08-03T12:46:37.121Z,93905.50
2022-08-03T12:49:06.949Z,93900.13
2022-08-03T12:51:36.707Z,93899.75
2022-08-03T12:54:04.265Z,93897.88
2022-08-03T12:56:31.140Z,93888.63
2022-08-03T12:58:57.783Z,93890.38
2022-08-03T13:01:24.595Z,93900.06
2022-08-03T13:03:53.845Z,93890.31
2022-08-03T13:06:22.199Z,93903.25
2022-08-03T13:08:49.917Z,93891.59
2022-08-03T13:11:50.532Z,93897.03
2022-08-03T13:14:15.267Z,93893.28
2022-08-03T13:16:47.892Z,93892.97
2022-08-03T13:19:15.389Z,93892.44
2022-08-03T13:21:53.713Z,93891.84
2022-08-03T13:24:30.578Z,93891.75
2022-08-03T13:26:59.044Z,93890.59
2022-08-03T13:29:25.781Z,93890.47
2022-08-03T13:31:52.452Z,93884.28
2022-08-03T13:34:23.000Z,93884.28
2022-08-03T13:37:08.421Z,93883.97
2022-08-03T13:39:58.323Z,93884.78
2022-08-03T13:42:22.659Z,93881.16
2022-08-03T13:44:49.335Z,93880.06
2022-08-03T13:47:16.209Z,93881.91
2022-08-03T13:49:59.982Z,93878.00
2022-08-03T13:52:33.485Z,93876.25
2022-08-03T13:55:01.382Z,93872.91
2022-08-03T13:58:05.170Z,93865.31
2022-08-03T14:00:27.165Z,93869.81
2022-08-03T14:03:13.813Z,93868.28
2022-08-03T14:05:43.239Z,93866.63
2022-08-03T14:08:10.472Z,93861.09
2022-08-03T14:10:40.269Z,93857.06
2022-08-03T14:13:07.710Z,93854.75
2022-08-03T14:15:37.208Z,93848.97
2022-08-03T14:18:06.585Z,93845.41
2022-08-03T14:20:36.635Z,93850.72
2022-08-03T14:23:04.368Z,93845.69
2022-08-03T14:25:32.282Z,93853.91
2022-08-03T14:28:11.295Z,93853.63
2022-08-03T14:30:38.009Z,93846.00
2022-08-03T14:33:04.635Z,93840.56
2022-08-03T14:35:31.502Z,93836.34
2022-08-03T14:37:58.181Z,93838.56
2022-08-03T14:40:24.878Z,93837.00
2022-08-03T14:42:51.602Z,93837.31
2022-08-03T14:45:20.160Z,93843.66
2022-08-03T14:50:32.950Z,93833.13
2022-08-03T14:50:41.983Z,93835.09
2022-08-03T14:53:11.126Z,93833.59
2022-08-03T14:55:38.543Z,93831.81
2022-08-03T14:58:19.366Z,93831.31
2022-08-03T15:00:46.876Z,93827.72
2022-08-03T15:03:16.706Z,93831.00
2022-08-03T15:05:44.459Z,93818.84
2022-08-03T15:08:11.588Z,93825.38
2022-08-03T15:10:44.549Z,93810.78
2022-08-03T15:13:13.344Z,93814.78
2022-08-03T15:15:40.639Z,93814.88
2022-08-03T15:18:07.630Z,93818.03
2022-08-03T15:20:49.626Z,93810.75
2022-08-03T15:23:17.856Z,93808.91
2022-08-03T15:26:32.314Z,93810.63
2022-08-03T15:28:32.980Z,93808.22
2022-08-03T15:31:00.166Z,93801.03
2022-08-03T15:33:26.818Z,93798.16
2022-08-03T15:35:54.054Z,93801.44
2022-08-03T15:38:26.056Z,93800.72
2022-08-03T15:40:56.806Z,93802.09
2022-08-03T15:43:23.909Z,93794.22
2022-08-03T15:46:18.981Z,93797.19
2022-08-03T15:48:38.357Z,93801.84
2022-08-03T15:51:05.560Z,93795.19
2022-08-03T15:53:33.579Z,93795.56
2022-08-03T15:56:00.990Z,93796.38
2022-08-03T15:59:03.758Z,93791.53
2022-08-03T16:01:19.857Z,93798.16
2022-08-03T16:03:47.044Z,93794.41
2022-08-03T16:06:13.896Z,93786.88
2022-08-03T16:08:40.644Z,93783.41
2022-08-03T16:11:07.451Z,93785.31
2022-08-03T16:14:13.852Z,93776.06
2022-08-03T16:16:20.894Z,93780.88
2022-08-03T16:18:47.584Z,93778.03
2022-08-03T16:21:19.310Z,93780.44
2022-08-03T16:23:47.194Z,93782.00
2022-08-03T16:26:14.632Z,93781.19
2022-08-03T16:28:41.506Z,93783.94
2022-08-03T16:31:09.138Z,93777.50
2022-08-03T16:33:36.084Z,93779.47
2022-08-03T16:36:03.092Z,93781.28
2022-08-03T16:38:30.507Z,93778.47
2022-08-03T16:40:57.297Z,93766.44
2022-08-03T16:43:24.821Z,93770.41
2022-08-03T16:45:51.930Z,93771.84
2022-08-03T16:48:19.252Z,93763.88
2022-08-03T16:50:46.276Z,93773.91
2022-08-03T16:53:17.010Z,93767.72
2022-08-03T16:55:53.200Z,93768.91
2022-08-03T16:58:34.628Z,93767.69
2022-08-03T17:01:24.372Z,93771.06
2022-08-03T17:04:03.133Z,93769.47
2022-08-03T17:06:44.974Z,93773.78
2022-08-03T17:09:17.904Z,93771.59
2022-08-03T17:11:47.827Z,93770.09
2022-08-03T17:14:17.133Z,93777.94
2022-08-03T17:16:52.506Z,93780.88
2022-08-03T17:19:23.966Z,93771.78
2022-08-03T17:22:04.275Z,93777.06
2022-08-03T17:24:34.881Z,93780.25
2022-08-03T17:27:08.966Z,93779.09
2022-08-03T17:29:45.279Z,93791.19
2022-08-03T17:32:18.172Z,93785.44
2022-08-03T17:34:48.956Z,93785.00
2022-08-03T17:37:27.017Z,93791.44
2022-08-03T17:40:04.159Z,93790.44
2022-08-03T17:42:33.058Z,93794.13
2022-08-03T17:45:03.753Z,93795.88
2022-08-03T17:50:25.101Z,93798.50
2022-08-03T17:53:07.569Z,93797.81
2022-08-03T17:55:54.749Z,93801.50
2022-08-03T17:59:51.443Z,93806.38
2022-08-03T18:03:14.375Z,93801.78
2022-08-03T18:06:11.943Z,93805.34
2022-08-03T18:08:46.208Z,93811.47
2022-08-03T18:11:16.739Z,93810.63
2022-08-03T18:14:09.932Z,93808.88
2022-08-03T18:16:57.720Z,93819.25
2022-08-03T18:20:01.001Z,93818.78
2022-08-03T18:22:16.041Z,93810.41
2022-08-03T18:24:44.643Z,93815.13
2022-08-03T18:27:15.792Z,93816.09
2022-08-03T18:29:45.806Z,93815.38
2022-08-03T18:32:16.907Z,93819.66
2022-08-03T18:34:53.633Z,93829.13
2022-08-03T18:37:25.176Z,93827.41
2022-08-03T18:39:55.903Z,93829.03
2022-08-03T18:42:26.270Z,93824.25
2022-08-03T18:44:56.782Z,93829.47
2022-08-03T18:50:50.026Z,93829.53
2022-08-03T18:54:03.129Z,93828.59
2022-08-03T18:56:34.021Z,93823.00
2022-08-03T18:59:09.712Z,93831.00
2022-08-03T19:02:00.572Z,93828.25
2022-08-03T19:04:41.027Z,93824.69
2022-08-03T19:07:09.582Z,93829.09
2022-08-03T19:09:44.867Z,93834.03
2022-08-03T19:12:27.320Z,93834.06
2022-08-03T19:15:03.713Z,93831.03
2022-08-03T19:17:35.882Z,93843.88
2022-08-03T19:20:06.205Z,93841.13
2022-08-03T19:22:33.851Z,93842.41
2022-08-03T19:25:04.574Z,93845.75
2022-08-03T19:27:32.323Z,93855.19
2022-08-03T19:30:03.042Z,93855.72
2022-08-03T19:32:32.430Z,93852.16
2022-08-03T19:35:01.191Z,93858.81
2022-08-03T19:37:38.283Z,93850.13
2022-08-03T19:40:10.343Z,93854.44
2022-08-03T19:42:44.465Z,93856.50
2022-08-03T19:45:15.486Z,93866.19
2022-08-03T19:47:47.499Z,93859.81
2022-08-03T19:50:16.411Z,93862.09
2022-08-03T19:52:46.739Z,93862.28
2022-08-03T19:55:15.670Z,93859.94
2022-08-03T19:57:45.583Z,93864.53
2022-08-03T20:00:13.948Z,93865.28
2022-08-03T20:02:41.371Z,93862.75
2022-08-03T20:05:14.817Z,93861.94
2022-08-03T20:07:47.587Z,93866.81
2022-08-03T20:10:17.386Z,93869.84
2022-08-03T20:12:45.622Z,93871.63
2022-08-03T20:15:12.898Z,93869.06
2022-08-03T20:17:55.030Z,93867.78
2022-08-03T20:20:30.999Z,93867.25
2022-08-03T20:22:59.644Z,93868.44
2022-08-03T20:25:37.947Z,93874.28
2022-08-03T20:28:13.980Z,93870.16
2022-08-03T20:30:43.372Z,93872.16
2022-08-03T20:33:10.354Z,93871.59
2022-08-03T20:35:37.281Z,93873.13
2022-08-03T20:38:03.981Z,93877.41
2022-08-03T20:40:31.459Z,93877.66
2022-08-03T20:42:59.824Z,93864.38
2022-08-03T20:45:58.282Z,93875.78
2022-08-03T20:48:17.633Z,93875.00
2022-08-03T20:50:49.446Z,93874.94
2022-08-03T20:53:19.936Z,93867.25
2022-08-03T20:56:04.220Z,93872.53
2022-08-03T20:58:30.956Z,93877.59
2022-08-03T21:00:58.252Z,93869.44
2022-08-03T21:03:24.877Z,93877.56
2022-08-03T21:06:11.996Z,93877.78
2022-08-03T21:08:48.122Z,93870.88
2022-08-03T21:11:18.414Z,93868.31
2022-08-03T21:13:04.349Z,93795.72
2022-08-03T21:13:09.559Z,93824.00
2022-08-03T21:13:56.233Z,93871.56
2022-08-03T21:16:27.671Z,93864.88
2022-08-03T21:18:58.991Z,93866.09
2022-08-03T21:21:28.869Z,93865.25
2022-08-03T21:23:58.321Z,93867.69
2022-08-03T21:26:26.208Z,93870.97
2022-08-03T21:28:56.800Z,93875.53
2022-08-03T21:31:26.575Z,93877.50
2022-08-03T21:33:56.484Z,93875.44
2022-08-03T21:36:25.596Z,93876.94
2022-08-03T21:38:56.270Z,93877.94
2022-08-03T21:41:24.406Z,93877.44
2022-08-03T21:43:51.057Z,93881.50
2022-08-03T21:46:19.896Z,93874.78
2022-08-03T21:48:53.411Z,93875.28
2022-08-03T21:51:24.840Z,93878.06
2022-08-03T21:54:03.338Z,93876.28
2022-08-03T21:56:41.729Z,93881.03
2022-08-03T21:59:15.708Z,93878.66
2022-08-03T22:01:43.343Z,93871.47
2022-08-03T22:04:16.613Z,93877.25
2022-08-03T22:06:57.893Z,93863.22
2022-08-03T22:09:24.596Z,93869.78
2022-08-03T22:11:54.167Z,93879.09
2022-08-03T22:14:21.636Z,93869.41
2022-08-03T22:16:49.146Z,93873.66
2022-08-03T22:19:15.882Z,93872.50
2022-08-03T22:21:48.792Z,93878.78
2022-08-03T22:24:18.656Z,93871.16
2022-08-03T22:27:05.698Z,93869.13
2022-08-03T22:29:34.727Z,93872.09
2022-08-03T22:32:01.565Z,93873.09
2022-08-03T22:34:29.257Z,93881.19
2022-08-03T22:37:02.090Z,93876.56
2022-08-03T22:39:30.030Z,93880.59
2022-08-03T22:41:58.965Z,93882.34
2022-08-03T22:44:27.217Z,93883.31
2022-08-03T22:46:55.451Z,93884.28
2022-08-03T22:49:22.642Z,93889.56
2022-08-03T22:51:51.754Z,93882.94
2022-08-03T22:54:19.045Z,93882.94
2022-08-03T22:56:47.109Z,93884.38
2022-08-03T22:59:39.968Z,93887.84
2022-08-03T23:02:02.450Z,93883.25
2022-08-03T23:04:51.125Z,93888.22
2022-08-03T23:07:38.992Z,93888.88
2022-08-03T23:10:12.460Z,93890.81
2022-08-03T23:12:41.598Z,93890.97
2022-08-03T23:15:13.332Z,93886.56
2022-08-03T23:18:01.416Z,93884.19
2022-08-03T23:20:29.561Z,93878.50
2022-08-03T23:22:57.927Z,93883.50
2022-08-03T23:25:25.185Z,93886.94
2022-08-03T23:28:05.268Z,93884.63
2022-08-03T23:30:36.324Z,93884.84
2022-08-03T23:33:04.102Z,93889.31
2022-08-03T23:36:29.164Z,93884.72
2022-08-03T23:38:37.313Z,93882.13
2022-08-03T23:41:04.797Z,93886.53
2022-08-03T23:43:44.730Z,93885.75
2022-08-03T23:46:21.351Z,93884.38
2022-08-03T23:48:48.104Z,93877.00
2022-08-03T23:51:42.201Z,93876.88
2022-08-03T23:54:17.991Z,93884.00
2022-08-03T23:57:07.489Z,93880.34
